sensor_id;sensor_type;location;lat;lon;timestamp;pressure;altitude;pressure_sealevel;temperature;humidity
13765;BME280;6953;48.810;9.204;2023-03-14T00:00:06;97154.19;;;12.06;100.00
13765;BME280;6953;48.810;9.204;2023-03-14T00:02:33;97137.72;;;12.04;100.00
13765;BME280;6953;48.810;9.204;2023-03-14T00:04:58;97141.06;;;12.06;100.00
13765;BME280;6953;48.810;9.204;2023-03-14T00:07:24;97135.22;;;12.02;100.00
13765;BME280;6953;48.810;9.204;2023-03-14T00:09:50;96811.91;;;10.11;100.00
13765;BME280;6953;48.810;9.204;2023-03-14T00:12:15;96842.13;;;10.15;100.00
13765;BME280;6953;48.810;9.204;2023-03-14T00:14:41;97133.81;;;11.98;100.00
13765;BME280;6953;48.810;9.204;2023-03-14T00:17:07;96936.78;;;10.74;100.00
13765;BME280;6953;48.810;9.204;2023-03-14T00:19:33;97133.28;;;12.04;100.00
13765;BME280;6953;48.810;9.204;2023-03-14T00:21:58;97113.50;;;12.00;100.00
13765;BME280;6953;48.810;9.204;2023-03-14T00:24:23;97124.31;;;12.07;100.00
13765;BME280;6953;48.810;9.204;2023-03-14T00:26:49;97026.41;;;11.53;100.00
13765;BME280;6953;48.810;9.204;2023-03-14T00:29:14;96886.41;;;10.71;100.00
13765;BME280;6953;48.810;9.204;2023-03-14T00:31:40;96793.31;;;10.14;100.00
13765;BME280;6953;48.810;9.204;2023-03-14T00:34:05;97053.63;;;11.63;100.00
13765;BME280;6953;48.810;9.204;2023-03-14T00:36:31;97153.75;;;12.01;100.00
13765;BME280;6953;48.810;9.204;2023-03-14T00:38:56;97118.53;;;11.92;100.00
13765;BME280;6953;48.810;9.204;2023-03-14T00:41:22;97023.00;;;11.41;100.00
13765;BME280;6953;48.810;9.204;2023-03-14T00:43:48;97115.09;;;11.92;100.00
13765;BME280;6953;48.810;9.204;2023-03-14T00:46:14;96950.13;;;10.82;100.00
13765;BME280;6953;48.810;9.204;2023-03-14T00:48:40;97104.59;;;11.92;100.00
13765;BME280;6953;48.810;9.204;2023-03-14T00:51:06;97124.25;;;11.97;100.00
13765;BME280;6953;48.810;9.204;2023-03-14T00:53:35;97102.88;;;11.70;100.00
13765;BME280;6953;48.810;9.204;2023-03-14T00:56:06;96862.31;;;10.34;100.00
13765;BME280;6953;48.810;9.204;2023-03-14T00:58:32;97105.66;;;11.69;100.00
13765;BME280;6953;48.810;9.204;2023-03-14T01:00:57;97130.00;;;11.91;100.00
13765;BME280;6953;48.810;9.204;2023-03-14T01:03:23;97131.13;;;11.89;100.00
13765;BME280;6953;48.810;9.204;2023-03-14T01:05:49;97166.72;;;11.82;100.00
13765;BME280;6953;48.810;9.204;2023-03-14T01:08:15;97187.25;;;11.88;100.00
13765;BME280;6953;48.810;9.204;2023-03-14T01:10:41;97173.16;;;11.89;100.00
13765;BME280;6953;48.810;9.204;2023-03-14T01:13:07;97173.28;;;11.87;100.00
13765;BME280;6953;48.810;9.204;2023-03-14T01:15:34;97188.88;;;12.00;100.00
13765;BME280;6953;48.810;9.204;2023-03-14T01:18:00;97166.88;;;12.01;100.00
13765;BME280;6953;48.810;9.204;2023-03-14T01:20:26;97159.00;;;12.01;100.00
13765;BME280;6953;48.810;9.204;2023-03-14T01:22:51;97161.25;;;12.05;100.00
13765;BME280;6953;48.810;9.204;2023-03-14T01:25:17;97134.00;;;12.06;100.00
13765;BME280;6953;48.810;9.204;2023-03-14T01:27:43;97111.38;;;11.94;100.00
13765;BME280;6953;48.810;9.204;2023-03-14T01:30:09;97100.59;;;11.97;100.00
13765;BME280;6953;48.810;9.204;2023-03-14T01:32:36;97096.63;;;12.03;100.00
13765;BME280;6953;48.810;9.204;2023-03-14T01:35:02;96986.50;;;11.38;100.00
13765;BME280;6953;48.810;9.204;2023-03-14T01:37:27;97070.53;;;11.90;100.00
13765;BME280;6953;48.810;9.204;2023-03-14T01:39:52;97061.13;;;11.88;100.00
13765;BME280;6953;48.810;9.204;2023-03-14T01:42:18;97101.25;;;11.90;100.00
13765;BME280;6953;48.810;9.204;2023-03-14T01:45:02;97063.63;;;11.89;100.00
13765;BME280;6953;48.810;9.204;2023-03-14T01:47:27;97050.16;;;11.83;100.00
13765;BME280;6953;48.810;9.204;2023-03-14T01:49:59;97057.47;;;11.79;100.00
13765;BME280;6953;48.810;9.204;2023-03-14T01:52:25;97040.16;;;11.77;100.00
13765;BME280;6953;48.810;9.204;2023-03-14T01:54:55;96772.09;;;10.17;100.00
13765;BME280;6953;48.810;9.204;2023-03-14T01:57:29;97053.19;;;11.78;100.00
13765;BME280;6953;48.810;9.204;2023-03-14T02:00:03;97084.56;;;11.80;100.00
13765;BME280;6953;48.810;9.204;2023-03-14T02:02:31;96761.53;;;10.07;100.00
13765;BME280;6953;48.810;9.204;2023-03-14T02:04:57;97011.97;;;11.58;100.00
13765;BME280;6953;48.810;9.204;2023-03-14T02:07:33;96965.81;;;11.25;100.00
13765;BME280;6953;48.810;9.204;2023-03-14T02:10:01;96832.06;;;10.41;100.00
13765;BME280;6953;48.810;9.204;2023-03-14T02:12:27;96967.03;;;11.21;100.00
13765;BME280;6953;48.810;9.204;2023-03-14T02:14:54;97050.75;;;11.66;100.00
13765;BME280;6953;48.810;9.204;2023-03-14T02:17:19;96759.19;;;9.93;100.00
13765;BME280;6953;48.810;9.204;2023-03-14T02:22:45;97022.09;;;11.32;100.00
13765;BME280;6953;48.810;9.204;2023-03-14T02:27:57;97037.44;;;11.47;100.00
13765;BME280;6953;48.810;9.204;2023-03-14T02:30:26;96994.63;;;11.36;100.00
13765;BME280;6953;48.810;9.204;2023-03-14T02:32:55;96874.25;;;10.70;100.00
13765;BME280;6953;48.810;9.204;2023-03-14T02:35:27;96962.34;;;11.24;100.00
13765;BME280;6953;48.810;9.204;2023-03-14T02:40:32;96979.34;;;11.40;100.00
13765;BME280;6953;48.810;9.204;2023-03-14T02:42:57;96991.22;;;11.44;100.00
13765;BME280;6953;48.810;9.204;2023-03-14T02:45:27;97004.34;;;11.55;100.00
13765;BME280;6953;48.810;9.204;2023-03-14T02:48:00;96998.00;;;11.58;100.00
13765;BME280;6953;48.810;9.204;2023-03-14T02:50:30;96681.03;;;9.78;100.00
13765;BME280;6953;48.810;9.204;2023-03-14T02:52:58;96945.75;;;11.24;100.00
13765;BME280;6953;48.810;9.204;2023-03-14T02:55:24;97029.41;;;11.59;100.00
13765;BME280;6953;48.810;9.204;2023-03-14T02:57:52;96888.81;;;11.15;100.00
13765;BME280;6953;48.810;9.204;2023-03-14T03:00:17;96971.78;;;11.67;100.00
13765;BME280;6953;48.810;9.204;2023-03-14T03:02:43;96957.41;;;11.62;100.00
13765;BME280;6953;48.810;9.204;2023-03-14T03:05:08;96878.81;;;11.29;100.00
13765;BME280;6953;48.810;9.204;2023-03-14T03:07:33;96916.72;;;11.56;100.00
13765;BME280;6953;48.810;9.204;2023-03-14T03:09:59;96777.84;;;10.83;100.00
13765;BME280;6953;48.810;9.204;2023-03-14T03:12:24;96916.19;;;11.62;100.00
13765;BME280;6953;48.810;9.204;2023-03-14T03:14:50;96878.03;;;11.38;100.00
13765;BME280;6953;48.810;9.204;2023-03-14T03:17:15;96830.59;;;11.30;100.00
13765;BME280;6953;48.810;9.204;2023-03-14T03:19:41;96745.75;;;10.90;100.00
13765;BME280;6953;48.810;9.204;2023-03-14T03:22:06;96676.91;;;10.47;100.00
13765;BME280;6953;48.810;9.204;2023-03-14T03:24:32;96930.78;;;12.06;100.00
13765;BME280;6953;48.810;9.204;2023-03-14T03:26:57;96901.84;;;11.66;100.00
13765;BME280;6953;48.810;9.204;2023-03-14T03:29:22;96626.94;;;10.19;100.00
13765;BME280;6953;48.810;9.204;2023-03-14T03:31:48;96942.00;;;12.08;100.00
13765;BME280;6953;48.810;9.204;2023-03-14T03:34:14;96865.06;;;11.66;100.00
13765;BME280;6953;48.810;9.204;2023-03-14T03:36:39;96810.13;;;11.24;100.00
13765;BME280;6953;48.810;9.204;2023-03-14T03:39:05;96665.31;;;10.50;100.00
13765;BME280;6953;48.810;9.204;2023-03-14T03:41:31;96890.00;;;11.72;100.00
13765;BME280;6953;48.810;9.204;2023-03-14T03:43:56;96912.78;;;12.01;100.00
13765;BME280;6953;48.810;9.204;2023-03-14T03:46:22;96913.59;;;12.02;100.00
13765;BME280;6953;48.810;9.204;2023-03-14T03:48:47;96910.69;;;11.95;100.00
13765;BME280;6953;48.810;9.204;2023-03-14T03:51:15;96912.09;;;11.99;100.00
13765;BME280;6953;48.810;9.204;2023-03-14T03:53:41;96688.56;;;10.64;100.00
13765;BME280;6953;48.810;9.204;2023-03-14T03:56:07;96887.25;;;11.83;100.00
13765;BME280;6953;48.810;9.204;2023-03-14T03:58:33;96647.06;;;10.39;100.00
13765;BME280;6953;48.810;9.204;2023-03-14T04:00:58;96913.31;;;11.95;100.00
13765;BME280;6953;48.810;9.204;2023-03-14T04:03:23;96911.91;;;11.91;100.00
13765;BME280;6953;48.810;9.204;2023-03-14T04:05:59;96906.91;;;11.88;100.00
13765;BME280;6953;48.810;9.204;2023-03-14T04:08:25;96723.34;;;10.66;99.67
13765;BME280;6953;48.810;9.204;2023-03-14T04:10:55;96802.09;;;11.26;99.61
13765;BME280;6953;48.810;9.204;2023-03-14T04:13:20;96665.81;;;10.44;98.40
13765;BME280;6953;48.810;9.204;2023-03-14T04:15:45;96898.59;;;11.83;96.94
13765;BME280;6953;48.810;9.204;2023-03-14T04:18:10;96793.16;;;11.28;96.50
13765;BME280;6953;48.810;9.204;2023-03-14T04:20:36;96895.84;;;11.85;96.46
13765;BME280;6953;48.810;9.204;2023-03-14T04:23:01;96897.50;;;11.86;96.31
13765;BME280;6953;48.810;9.204;2023-03-14T04:25:26;96622.81;;;10.26;95.80
13765;BME280;6953;48.810;9.204;2023-03-14T04:27:52;96902.81;;;11.95;95.70
13765;BME280;6953;48.810;9.204;2023-03-14T04:30:17;96902.81;;;11.95;94.88
13765;BME280;6953;48.810;9.204;2023-03-14T04:32:42;96719.16;;;10.84;95.02
13765;BME280;6953;48.810;9.204;2023-03-14T04:35:08;96871.88;;;11.69;94.66
13765;BME280;6953;48.810;9.204;2023-03-14T04:37:33;96826.00;;;11.52;94.53
13765;BME280;6953;48.810;9.204;2023-03-14T04:39:59;96836.56;;;11.41;93.48
13765;BME280;6953;48.810;9.204;2023-03-14T04:42:25;96890.47;;;11.96;94.26
13765;BME280;6953;48.810;9.204;2023-03-14T04:44:51;96890.06;;;11.91;94.64
13765;BME280;6953;48.810;9.204;2023-03-14T04:47:16;96879.69;;;11.89;94.92
13765;BME280;6953;48.810;9.204;2023-03-14T04:49:42;96804.41;;;11.39;94.90
13765;BME280;6953;48.810;9.204;2023-03-14T04:52:07;96877.31;;;11.86;94.78
13765;BME280;6953;48.810;9.204;2023-03-14T04:54:32;96872.19;;;11.85;94.81
13765;BME280;6953;48.810;9.204;2023-03-14T04:56:58;96701.06;;;10.81;94.73
13765;BME280;6953;48.810;9.204;2023-03-14T04:59:24;96870.09;;;11.79;94.74
13765;BME280;6953;48.810;9.204;2023-03-14T05:01:49;96585.78;;;10.10;94.25
13765;BME280;6953;48.810;9.204;2023-03-14T05:04:15;96614.97;;;10.26;94.00
13765;BME280;6953;48.810;9.204;2023-03-14T05:06:40;96862.38;;;11.77;94.45
13765;BME280;6953;48.810;9.204;2023-03-14T05:09:07;96575.94;;;10.03;94.47
13765;BME280;6953;48.810;9.204;2023-03-14T05:11:32;96847.91;;;11.62;94.87
13765;BME280;6953;48.810;9.204;2023-03-14T05:13:58;96772.47;;;11.14;94.72
13765;BME280;6953;48.810;9.204;2023-03-14T05:16:23;96846.63;;;11.57;95.14
13765;BME280;6953;48.810;9.204;2023-03-14T05:18:48;96846.13;;;11.63;94.66
13765;BME280;6953;48.810;9.204;2023-03-14T05:21:14;96589.28;;;10.00;94.72
13765;BME280;6953;48.810;9.204;2023-03-14T05:23:39;96605.31;;;10.06;94.38
13765;BME280;6953;48.810;9.204;2023-03-14T05:26:05;96839.13;;;11.52;94.75
13765;BME280;6953;48.810;9.204;2023-03-14T05:28:30;96835.94;;;11.49;95.08
13765;BME280;6953;48.810;9.204;2023-03-14T05:30:55;96598.16;;;10.08;95.07
13765;BME280;6953;48.810;9.204;2023-03-14T05:33:21;96863.88;;;11.50;95.05
13765;BME280;6953;48.810;9.204;2023-03-14T05:35:46;96712.22;;;10.73;95.64
13765;BME280;6953;48.810;9.204;2023-03-14T05:38:11;96780.81;;;11.19;95.47
13765;BME280;6953;48.810;9.204;2023-03-14T05:40:37;96830.09;;;11.45;95.56
13765;BME280;6953;48.810;9.204;2023-03-14T05:43:02;96718.91;;;10.87;95.68
13765;BME280;6953;48.810;9.204;2023-03-14T05:45:28;96584.75;;;10.02;95.14
13765;BME280;6953;48.810;9.204;2023-03-14T05:47:53;96814.19;;;11.38;95.93
13765;BME280;6953;48.810;9.204;2023-03-14T05:50:18;96829.09;;;11.37;95.63
13765;BME280;6953;48.810;9.204;2023-03-14T05:52:44;96839.50;;;11.38;95.85
13765;BME280;6953;48.810;9.204;2023-03-14T05:55:09;96827.78;;;11.52;95.01
13765;BME280;6953;48.810;9.204;2023-03-14T05:57:34;96835.47;;;11.64;94.33
13765;BME280;6953;48.810;9.204;2023-03-14T06:00:01;96831.63;;;11.68;93.57
13765;BME280;6953;48.810;9.204;2023-03-14T06:02:26;96583.06;;;10.21;93.47
13765;BME280;6953;48.810;9.204;2023-03-14T06:04:52;96836.66;;;11.81;93.64
13765;BME280;6953;48.810;9.204;2023-03-14T06:07:18;96732.59;;;11.20;93.79
13765;BME280;6953;48.810;9.204;2023-03-14T06:09:43;96837.88;;;11.77;94.03
13765;BME280;6953;48.810;9.204;2023-03-14T06:12:08;96717.03;;;10.98;94.35
13765;BME280;6953;48.810;9.204;2023-03-14T06:14:33;96837.03;;;11.67;95.51
13765;BME280;6953;48.810;9.204;2023-03-14T06:16:59;96765.09;;;11.29;95.37
13765;BME280;6953;48.810;9.204;2023-03-14T06:19:25;96834.16;;;11.79;94.77
13765;BME280;6953;48.810;9.204;2023-03-14T06:21:51;96836.50;;;11.82;94.27
13765;BME280;6953;48.810;9.204;2023-03-14T06:24:17;96780.47;;;11.63;93.77
13765;BME280;6953;48.810;9.204;2023-03-14T06:26:42;96768.56;;;11.59;92.55
13765;BME280;6953;48.810;9.204;2023-03-14T06:29:08;96861.03;;;11.92;92.78
13765;BME280;6953;48.810;9.204;2023-03-14T06:31:34;96857.59;;;11.92;92.13
13765;BME280;6953;48.810;9.204;2023-03-14T06:33:59;96822.56;;;11.91;92.44
13765;BME280;6953;48.810;9.204;2023-03-14T06:36:25;96755.38;;;11.49;92.88
13765;BME280;6953;48.810;9.204;2023-03-14T06:38:50;96818.94;;;11.83;92.82
13765;BME280;6953;48.810;9.204;2023-03-14T06:41:15;96784.78;;;11.73;91.37
13765;BME280;6953;48.810;9.204;2023-03-14T06:43:41;96819.56;;;12.15;91.13
13765;BME280;6953;48.810;9.204;2023-03-14T06:46:06;96794.81;;;12.08;90.28
13765;BME280;6953;48.810;9.204;2023-03-14T06:48:32;96797.88;;;12.13;90.10
13765;BME280;6953;48.810;9.204;2023-03-14T06:50:57;96806.72;;;12.12;90.20
13765;BME280;6953;48.810;9.204;2023-03-14T06:53:22;96671.00;;;11.24;89.92
13765;BME280;6953;48.810;9.204;2023-03-14T06:55:48;96839.50;;;12.08;90.58
13765;BME280;6953;48.810;9.204;2023-03-14T06:58:14;96794.06;;;11.77;90.49
13765;BME280;6953;48.810;9.204;2023-03-14T07:00:39;96546.94;;;10.54;90.13
13765;BME280;6953;48.810;9.204;2023-03-14T07:03:04;96817.66;;;12.36;89.16
13765;BME280;6953;48.810;9.204;2023-03-14T07:05:30;96556.06;;;11.18;87.80
13765;BME280;6953;48.810;9.204;2023-03-14T07:07:55;96615.84;;;12.01;85.41
13765;BME280;6953;48.810;9.204;2023-03-14T07:10:21;96840.72;;;13.36;84.61
13765;BME280;6953;48.810;9.204;2023-03-14T07:12:46;96730.84;;;12.92;84.00
13765;BME280;6953;48.810;9.204;2023-03-14T07:15:12;96739.97;;;12.88;83.03
13765;BME280;6953;48.810;9.204;2023-03-14T07:17:37;96805.69;;;13.26;82.75
13765;BME280;6953;48.810;9.204;2023-03-14T07:20:03;96758.81;;;13.03;83.09
13765;BME280;6953;48.810;9.204;2023-03-14T07:22:32;96822.91;;;13.57;82.21
13765;BME280;6953;48.810;9.204;2023-03-14T07:24:57;96834.66;;;13.72;80.31
13765;BME280;6953;48.810;9.204;2023-03-14T07:27:22;96749.59;;;13.52;79.82
13765;BME280;6953;48.810;9.204;2023-03-14T07:29:48;96763.53;;;13.89;78.07
13765;BME280;6953;48.810;9.204;2023-03-14T07:32:13;96815.88;;;15.33;73.44
13765;BME280;6953;48.810;9.204;2023-03-14T07:34:41;96838.00;;;18.07;62.83
13765;BME280;6953;48.810;9.204;2023-03-14T07:37:06;96600.34;;;18.79;54.48
13765;BME280;6953;48.810;9.204;2023-03-14T07:39:32;96600.75;;;20.04;48.72
13765;BME280;6953;48.810;9.204;2023-03-14T07:41:57;96652.88;;;21.64;45.06
13765;BME280;6953;48.810;9.204;2023-03-14T07:44:22;96823.63;;;23.25;41.53
13765;BME280;6953;48.810;9.204;2023-03-14T07:46:48;96740.88;;;23.24;40.09
13765;BME280;6953;48.810;9.204;2023-03-14T07:49:13;96792.69;;;24.07;37.96
13765;BME280;6953;48.810;9.204;2023-03-14T07:51:39;96822.75;;;24.85;36.41
13765;BME280;6953;48.810;9.204;2023-03-14T07:54:04;96733.41;;;24.78;35.62
13765;BME280;6953;48.810;9.204;2023-03-14T07:56:29;96753.88;;;25.04;34.62
13765;BME280;6953;48.810;9.204;2023-03-14T07:58:55;96782.06;;;24.51;34.90
13765;BME280;6953;48.810;9.204;2023-03-14T08:01:20;96729.56;;;23.22;37.85
13765;BME280;6953;48.810;9.204;2023-03-14T08:03:45;96746.41;;;23.03;39.00
13765;BME280;6953;48.810;9.204;2023-03-14T08:06:11;96809.84;;;23.74;37.84
13765;BME280;6953;48.810;9.204;2023-03-14T08:08:36;96804.47;;;24.06;37.29
13765;BME280;6953;48.810;9.204;2023-03-14T08:11:03;96769.06;;;24.41;35.47
13765;BME280;6953;48.810;9.204;2023-03-14T08:13:29;96819.00;;;24.93;34.33
13765;BME280;6953;48.810;9.204;2023-03-14T08:15:54;96811.78;;;24.36;35.93
13765;BME280;6953;48.810;9.204;2023-03-14T08:18:20;96806.34;;;23.34;37.18
13765;BME280;6953;48.810;9.204;2023-03-14T08:20:45;96688.75;;;22.68;37.42
13765;BME280;6953;48.810;9.204;2023-03-14T08:23:10;96817.41;;;24.79;33.84
13765;BME280;6953;48.810;9.204;2023-03-14T08:25:38;96830.13;;;25.58;32.57
13765;BME280;6953;48.810;9.204;2023-03-14T08:28:03;96687.16;;;25.74;31.21
13765;BME280;6953;48.810;9.204;2023-03-14T08:30:29;96630.13;;;25.72;30.42
13765;BME280;6953;48.810;9.204;2023-03-14T08:32:56;96801.06;;;27.57;28.44
13765;BME280;6953;48.810;9.204;2023-03-14T08:35:22;96813.66;;;27.97;27.75
13765;BME280;6953;48.810;9.204;2023-03-14T08:37:47;96836.16;;;28.60;26.50
13765;BME280;6953;48.810;9.204;2023-03-14T08:40:13;96809.78;;;28.90;25.69
13765;BME280;6953;48.810;9.204;2023-03-14T08:42:39;96775.31;;;26.91;27.59
13765;BME280;6953;48.810;9.204;2023-03-14T08:45:06;96828.34;;;25.76;30.53
13765;BME280;6953;48.810;9.204;2023-03-14T08:47:32;96795.91;;;24.28;32.50
13765;BME280;6953;48.810;9.204;2023-03-14T08:49:58;96611.47;;;21.81;35.67
13765;BME280;6953;48.810;9.204;2023-03-14T08:52:23;96606.63;;;20.90;38.23
13765;BME280;6953;48.810;9.204;2023-03-14T08:54:48;96648.03;;;22.86;34.98
13765;BME280;6953;48.810;9.204;2023-03-14T08:57:14;96816.69;;;25.33;30.80
13765;BME280;6953;48.810;9.204;2023-03-14T08:59:39;96820.97;;;25.90;30.28
13765;BME280;6953;48.810;9.204;2023-03-14T09:02:05;96853.78;;;27.24;27.76
13765;BME280;6953;48.810;9.204;2023-03-14T09:04:31;96831.72;;;27.97;26.66
13765;BME280;6953;48.810;9.204;2023-03-14T09:06:56;96860.34;;;26.27;28.68
13765;BME280;6953;48.810;9.204;2023-03-14T09:09:23;96852.53;;;25.45;31.14
13765;BME280;6953;48.810;9.204;2023-03-14T09:11:49;96849.88;;;24.64;32.35
13765;BME280;6953;48.810;9.204;2023-03-14T09:14:14;96874.88;;;25.39;31.46
13765;BME280;6953;48.810;9.204;2023-03-14T09:16:40;96770.03;;;25.28;30.65
13765;BME280;6953;48.810;9.204;2023-03-14T09:19:05;96863.47;;;24.76;32.47
13765;BME280;6953;48.810;9.204;2023-03-14T09:21:31;96842.16;;;23.08;35.50
13765;BME280;6953;48.810;9.204;2023-03-14T09:23:56;96816.97;;;22.02;38.83
13765;BME280;6953;48.810;9.204;2023-03-14T09:26:21;96586.59;;;20.73;39.85
13765;BME280;6953;48.810;9.204;2023-03-14T09:28:47;96675.97;;;23.48;35.62
13765;BME280;6953;48.810;9.204;2023-03-14T09:31:12;96752.50;;;25.74;31.62
13765;BME280;6953;48.810;9.204;2023-03-14T09:33:38;96918.81;;;26.55;30.82
13765;BME280;6953;48.810;9.204;2023-03-14T09:36:04;96798.31;;;26.39;30.05
13765;BME280;6953;48.810;9.204;2023-03-14T09:38:30;96834.75;;;26.60;29.54
13765;BME280;6953;48.810;9.204;2023-03-14T09:40:59;96830.75;;;26.09;30.55
13765;BME280;6953;48.810;9.204;2023-03-14T09:43:26;96898.75;;;25.23;32.71
13765;BME280;6953;48.810;9.204;2023-03-14T09:45:55;96888.50;;;25.14;32.95
13765;BME280;6953;48.810;9.204;2023-03-14T09:48:26;96900.53;;;24.92;33.38
13765;BME280;6953;48.810;9.204;2023-03-14T09:50:54;96897.81;;;24.22;35.02
13765;BME280;6953;48.810;9.204;2023-03-14T09:53:24;96900.25;;;22.86;38.04
13765;BME280;6953;48.810;9.204;2023-03-14T09:55:51;96851.28;;;22.79;38.15
13765;BME280;6953;48.810;9.204;2023-03-14T09:58:22;96898.00;;;23.56;36.69
13765;BME280;6953;48.810;9.204;2023-03-14T10:00:54;96808.41;;;23.84;35.10
13765;BME280;6953;48.810;9.204;2023-03-14T10:03:33;96834.03;;;25.31;31.89
13765;BME280;6953;48.810;9.204;2023-03-14T10:05:59;96905.91;;;25.66;31.61
13765;BME280;6953;48.810;9.204;2023-03-14T10:08:24;96846.22;;;24.96;32.50
13765;BME280;6953;48.810;9.204;2023-03-14T10:10:50;96742.41;;;25.45;30.44
13765;BME280;6953;48.810;9.204;2023-03-14T10:13:18;96896.34;;;27.92;27.67
13765;BME280;6953;48.810;9.204;2023-03-14T10:15:55;96760.72;;;28.54;25.42
13765;BME280;6953;48.810;9.204;2023-03-14T10:18:23;96893.09;;;30.96;23.09
13765;BME280;6953;48.810;9.204;2023-03-14T10:20:52;96725.94;;;30.11;22.71
13765;BME280;6953;48.810;9.204;2023-03-14T10:23:29;96853.00;;;29.90;23.65
13765;BME280;6953;48.810;9.204;2023-03-14T10:28:31;96781.59;;;28.58;25.52
13765;BME280;6953;48.810;9.204;2023-03-14T10:30:57;96878.88;;;30.68;23.69
13765;BME280;6953;48.810;9.204;2023-03-14T10:33:33;96878.53;;;29.22;24.68
13765;BME280;6953;48.810;9.204;2023-03-14T10:36:05;96872.13;;;26.08;29.20
13765;BME280;6953;48.810;9.204;2023-03-14T10:38:34;96662.34;;;22.33;33.42
13765;BME280;6953;48.810;9.204;2023-03-14T10:41:00;96801.16;;;21.73;38.22
13765;BME280;6953;48.810;9.204;2023-03-14T10:43:36;96859.22;;;21.65;40.01
13765;BME280;6953;48.810;9.204;2023-03-14T10:46:15;96795.22;;;22.05;39.76
13765;BME280;6953;48.810;9.204;2023-03-14T10:48:42;96847.22;;;23.03;37.58
13765;BME280;6953;48.810;9.204;2023-03-14T10:53:44;96905.41;;;21.86;39.54
13765;BME280;6953;48.810;9.204;2023-03-14T10:56:20;96877.75;;;20.75;42.61
13765;BME280;6953;48.810;9.204;2023-03-14T10:58:48;96880.84;;;19.99;45.16
13765;BME280;6953;48.810;9.204;2023-03-14T11:04:29;96923.44;;;19.18;48.41
13765;BME280;6953;48.810;9.204;2023-03-14T11:11:53;96893.72;;;17.99;54.24
13765;BME280;6953;48.810;9.204;2023-03-14T11:14:38;96674.94;;;16.47;55.02
13765;BME280;6953;48.810;9.204;2023-03-14T11:17:16;96850.56;;;17.43;56.33
13765;BME280;6953;48.810;9.204;2023-03-14T11:19:50;96904.28;;;17.61;57.91
13765;BME280;6953;48.810;9.204;2023-03-14T11:22:32;96910.03;;;17.17;59.50
13765;BME280;6953;48.810;9.204;2023-03-14T11:33:56;96920.56;;;14.01;80.95
13765;BME280;6953;48.810;9.204;2023-03-14T11:36:38;96649.28;;;12.09;83.30
13765;BME280;6953;48.810;9.204;2023-03-14T11:39:09;96928.34;;;13.38;84.49
13765;BME280;6953;48.810;9.204;2023-03-14T11:41:42;96850.50;;;12.98;84.98
13765;BME280;6953;48.810;9.204;2023-03-14T11:44:20;96634.09;;;11.84;85.91
13765;BME280;6953;48.810;9.204;2023-03-14T11:46:57;96830.84;;;12.73;85.56
13765;BME280;6953;48.810;9.204;2023-03-14T11:49:38;96886.66;;;13.15;85.62
13765;BME280;6953;48.810;9.204;2023-03-14T11:52:30;96950.97;;;13.31;86.14
13765;BME280;6953;48.810;9.204;2023-03-14T11:54:58;96951.38;;;13.17;86.93
13765;BME280;6953;48.810;9.204;2023-03-14T11:57:26;96949.69;;;13.16;86.97
13765;BME280;6953;48.810;9.204;2023-03-14T12:11:00;96983.34;;;13.60;87.89
13765;BME280;6953;48.810;9.204;2023-03-14T12:13:30;96991.91;;;13.90;86.19
13765;BME280;6953;48.810;9.204;2023-03-14T12:16:00;96866.56;;;13.14;86.18
13765;BME280;6953;48.810;9.204;2023-03-14T12:18:28;97019.00;;;13.64;86.28
13765;BME280;6953;48.810;9.204;2023-03-14T12:20:57;97007.66;;;13.45;87.45
13765;BME280;6953;48.810;9.204;2023-03-14T12:23:24;97035.09;;;13.42;88.71
13765;BME280;6953;48.810;9.204;2023-03-14T12:28:49;96765.81;;;11.60;87.41
13765;BME280;6953;48.810;9.204;2023-03-14T12:42:10;97014.16;;;19.76;49.70
13765;BME280;6953;48.810;9.204;2023-03-14T12:44:43;96867.34;;;19.50;45.02
13765;BME280;6953;48.810;9.204;2023-03-14T12:49:45;97144.22;;;23.03;35.80
13765;BME280;6953;48.810;9.204;2023-03-14T12:52:17;96921.19;;;22.70;31.72
13765;BME280;6953;48.810;9.204;2023-03-14T12:55:12;96995.59;;;23.47;29.09
13765;BME280;6953;48.810;9.204;2023-03-14T12:57:45;97181.91;;;25.40;26.21
13765;BME280;6953;48.810;9.204;2023-03-14T13:00:21;96980.25;;;24.78;25.00
13765;BME280;6953;48.810;9.204;2023-03-14T13:02:48;97157.09;;;25.44;24.30
13765;BME280;6953;48.810;9.204;2023-03-14T13:05:20;97223.44;;;25.37;24.23
13765;BME280;6953;48.810;9.204;2023-03-14T13:10:25;96983.88;;;21.85;26.98
13765;BME280;6953;48.810;9.204;2023-03-14T13:12:56;96963.41;;;19.77;30.08
13765;BME280;6953;48.810;9.204;2023-03-14T13:15:29;97228.72;;;20.68;31.60
13765;BME280;6953;48.810;9.204;2023-03-14T13:18:01;97228.81;;;19.99;32.56
13765;BME280;6953;48.810;9.204;2023-03-14T13:20:34;97268.75;;;20.37;32.79
13765;BME280;6953;48.810;9.204;2023-03-14T13:23:01;97028.09;;;18.24;32.95
13765;BME280;6953;48.810;9.204;2023-03-14T13:25:30;97271.22;;;18.35;33.79
13765;BME280;6953;48.810;9.204;2023-03-14T13:27:57;97306.16;;;17.73;34.85
13765;BME280;6953;48.810;9.204;2023-03-14T13:30:28;97278.41;;;16.91;35.67
13765;BME280;6953;48.810;9.204;2023-03-14T13:32:55;97327.09;;;16.56;37.42
13765;BME280;6953;48.810;9.204;2023-03-14T13:35:29;97317.84;;;16.42;38.16
13765;BME280;6953;48.810;9.204;2023-03-14T13:37:57;97323.53;;;16.47;38.46
13765;BME280;6953;48.810;9.204;2023-03-14T13:40:30;97313.69;;;16.40;37.03
13765;BME280;6953;48.810;9.204;2023-03-14T13:43:02;97392.88;;;15.97;38.47
13765;BME280;6953;48.810;9.204;2023-03-14T13:45:29;97366.09;;;15.73;39.76
13765;BME280;6953;48.810;9.204;2023-03-14T13:47:54;97357.03;;;15.75;38.64
13765;BME280;6953;48.810;9.204;2023-03-14T13:50:29;97370.97;;;16.04;38.83
13765;BME280;6953;48.810;9.204;2023-03-14T13:52:56;97375.19;;;16.34;38.13
13765;BME280;6953;48.810;9.204;2023-03-14T13:55:22;97367.44;;;16.67;36.98
13765;BME280;6953;48.810;9.204;2023-03-14T13:57:53;97399.06;;;16.68;36.93
13765;BME280;6953;48.810;9.204;2023-03-14T14:00:25;97378.19;;;16.12;36.03
13765;BME280;6953;48.810;9.204;2023-03-14T14:02:56;97334.72;;;15.51;35.17
13765;BME280;6953;48.810;9.204;2023-03-14T14:05:26;97419.00;;;15.63;34.94
13765;BME280;6953;48.810;9.204;2023-03-14T14:07:52;97244.38;;;14.64;34.66